Station: Robe Airport  

  Atmospheric Gas Attenuation - ITU Rec 676-11   ----------------- dB/100km -----------------
Date Time Temp RH % AH g/m3 Dew Point Wind Direction Speed kph Gust kph Barometer mB Rainfall Since 9am 24GHz 47GHz 76GHz 122GHz 134GHz 241GHz
04/05 21:20 14.3 77 9.46 10.3 15 20 1017.1 1.6 21.4 27.3 43.2 113.5 109.6 377.6
04/05 21:10 14.6 77 9.64 10.6 20 26 1016.9 1.6 21.8 27.5 43.8 115.0 111.6 384.6
04/05 21:00 14.4 77 9.52 10.4 13 24 1016.7 1.6 21.5 27.4 43.4 114.0 110.2 379.8
04/05 20:50 14.3 77 9.46 10.3 15 17 1016.6 1.6 21.4 27.3 43.2 113.5 109.5 377.5
04/05 20:40 14.4 75 9.27 10 17 19 1016.5 1.6 21.0 26.9 42.3 111.2 106.8 368.0
04/05 20:30 14.6 75 9.39 10.2 13 22 1016.3 1.6 21.2 27.1 42.7 112.2 108.1 372.6
04/05 20:20 14.5 74 9.2 9.9 15 20 1016.2 1.6 20.8 26.8 42.0 110.3 105.7 364.1
04/05 20:10 14.5 74 9.2 9.9 19 24 1016 1.6 20.8 26.8 42.0 110.3 105.7 364.1
04/05 20:00 14.5 74 9.2 9.9 17 26 1015.9 1.6 20.8 26.8 42.0 110.3 105.7 364.0
04/05 19:50 14.5 73 9.08 9.7 20 28 1015.8 1.6 20.6 26.6 41.5 108.9 104.1 358.4
04/05 19:40 14.4 75 9.27 10 17 22 1015.8 1.6 21.0 26.9 42.3 111.1 106.8 367.8
04/05 19:30 14.4 76 9.39 10.2 15 22 1015.7 1.6 21.2 27.1 42.8 112.4 108.4 373.4
04/05 19:20 14.4 76 9.39 10.2 17 22 1015.5 1.6 21.2 27.1 42.8 112.4 108.3 373.3
04/05 19:10 14.3 79 9.71 10.7 19 22 1015.5 1.6 21.9 27.7 44.2 116.1 112.8 389.0
04/05 19:00 14.4 78 9.64 10.6 17 28 1015.4 1.6 21.8 27.5 43.8 115.2 111.7 385.2
04/05 18:50 14.2 80 9.77 10.9 19 22 1015.3 1.6 22.1 27.8 44.5 116.9 113.8 392.3
04/05 18:40 14.2 83 10.14 11.3 15 17 1015.1 1.6 22.9 28.4 46.0 121.0 118.9 410.1
04/05 18:30 14.1 82 9.95 11.1 15 28 1014.9 1.6 22.5 28.1 45.3 119.0 116.4 401.4
04/05 18:20 14 83 10.01 11.1 15 19 1014.8 1.6 22.6 28.2 45.6 119.8 117.3 404.8
04/05 18:10 14.1 86 10.44 11.8 11 13 1014.6 1.6 23.5 28.9 47.3 124.5 123.2 425.2
04/05 18:00 14.3 84 10.32 11.6 20 30 1014.5 1.6 23.2 28.6 46.7 122.8 121.2 418.2
04/05 17:50 14.7 82 10.32 11.6 19 24 1014.3 1.4 23.2 28.5 46.4 122.2 120.5 415.9
04/05 17:40 14.9 79 10.07 11.4 17 20 1014.1 1.4 22.7 28.0 45.3 119.0 116.7 402.8
04/05 17:30 14.6 80 10.01 11.2 15 28 1013.9 1.4 22.6 28.0 45.2 118.8 116.3 401.4
04/05 17:20 14.4 80 9.89 11 13 15 1013.7 1.4 22.3 27.9 44.8 117.7 115.0 396.6
04/05 17:10 14.9 79 10.07 11.3 20 26 1013.6 1.4 22.7 28.0 45.2 119.0 116.7 402.6
04/05 17:00 14.9 78 9.94 11.1 20 35 1013.5 1.4 22.4 27.8 44.7 117.5 114.9 396.4
04/05 16:50 15.2 76 9.86 11 13 17 1013.5 1.4 22.2 27.5 44.2 116.2 113.4 391.0
04/05 16:40 15.2 76 9.86 11 20 28 1013.3 1.4 22.2 27.5 44.2 116.2 113.4 391.0
04/05 16:30 15.2 76 9.86 11 20 33 1013.2 1.4 22.2 27.5 44.2 116.2 113.3 390.9
04/05 16:20 15.4 75 9.85 11 19 26 1013 1.4 22.2 27.4 44.0 115.7 112.9 389.4
04/05 16:10 15.5 74 9.78 10.9 22 33 1012.8 1.4 22.0 27.3 43.7 114.8 111.8 385.6
04/05 16:00 15.8 73 9.83 11 20 33 1012.6 1.4 22.1 27.3 43.7 114.9 112.0 386.4
04/05 15:50 15.6 71 9.44 10.5 26 33 1012.5 1.4 21.3 26.7 42.2 110.9 107.1 369.1
04/05 15:40 16.3 72 9.99 11.2 19 22 1012.4 1.4 22.4 27.4 44.1 115.9 113.4 391.3
04/05 15:30 16.4 73 10.19 11.6 22 37 1012.2 1.4 22.9 27.7 44.8 117.9 115.9 400.1
04/05 15:20 16.2 74 10.2 11.7 28 35 1012.1 1.4 22.9 27.7 45.0 118.3 116.4 401.6
04/05 15:10 16.1 75 10.28 11.8 22 30 1011.9 1.4 23.1 27.9 45.3 119.3 117.6 405.9
04/05 15:00 15.5 80 10.57 12.1 20 33 1011.8 1.4 23.7 28.6 46.9 123.4 122.5 422.9
04/05 14:50 15.4 77 10.12 11.5 24 28 1011.6 1.4 22.8 27.8 45.1 118.5 116.4 401.8
04/05 14:40 16.4 78 10.89 12.5 20 32 1011.5 1.4 24.4 28.8 47.7 125.5 125.4 433.3
04/05 14:30 15.6 81 10.77 12.4 20 35 1011.3 1.4 24.1 28.9 47.7 125.5 125.0 431.9
04/05 14:20 15.7 84 11.24 13 13 19 1011.2 1.4 25.1 29.6 49.6 130.6 131.4 454.2
04/05 14:10 14.8 88 11.15 12.8 20 26 1011.1 1.4 25.0 29.8 49.8 131.1 131.7 455.0
04/05 14:00 14 87 10.49 11.9 24 44 1011 1.4 23.6 28.9 47.4 124.8 123.7 427.0
04/05 13:50 14.2 86 10.5 11.9 24 28 1010.9 1.2 23.6 28.8 47.3 124.6 123.5 426.3
04/05 13:40 16.8 73 10.44 11.9 20 30 1010.6 0.8 23.4 27.9 45.5 119.8 118.5 409.3
04/05 13:30 16.2 76 10.48 12 24 39 1010.6 0.8 23.5 28.2 46.0 121.2 120.0 414.4
04/05 13:20 16.3 71 9.85 11 26 39 1010.6 0.8 22.1 27.1 43.4 114.1 111.4 384.2
04/05 13:10 16.9 68 9.78 11.1 24 35 1010.4 0.8 22.0 26.8 42.8 112.5 109.6 378.0
04/05 13:00 16.8 73 10.44 11.9 22 41 1010.2 0.8 23.4 27.9 45.5 119.8 118.5 409.2
04/05 12:50 16.8 78 11.15 12.9 19 24 1010.2 0.8 24.9 29.1 48.5 127.7 128.2 443.1
04/05 12:40 16.7 77 10.94 12.6 22 28 1010.2 0.8 24.4 28.7 47.6 125.5 125.5 433.6
04/05 12:30 16.6 78 11.02 12.8 22 37 1010.1 0.8 24.6 28.9 48.0 126.5 126.7 437.9
04/05 12:20 16 79 10.76 12.3 26 35 1010.1 0.8 24.1 28.7 47.3 124.6 124.1 428.7
04/05 12:10 16.8 79 11.29 13.1 28 33 1010.1 0.8 25.2 29.3 49.1 129.2 130.1 449.8
04/05 12:00 16.6 83 11.72 13.7 17 32 1010 0.8 26.1 30.1 51.0 134.4 136.5 472.0
04/05 11:50 15.3 83 10.84 12.4 15 26 1010 0.8 24.3 29.0 48.1 126.6 126.4 436.5
04/05 11:40 17.4 75 11.11 12.9 24 37 1009.9 0.6 24.8 28.8 47.9 126.2 126.6 437.7
04/05 11:30 16.8 74 10.58 12.1 17 32 1010 0.6 23.7 28.1 46.1 121.3 120.4 415.8
04/05 11:20 16.4 77 10.75 12.3 17 26 1009.9 0.6 24.1 28.5 47.0 123.8 123.3 426.0
04/05 11:10 16.7 75 10.66 12.2 17 22 1009.8 0.6 23.8 28.3 46.5 122.3 121.6 420.0
04/05 11:00 16.6 78 11.02 12.8 19 35 1009.8 0.6 24.6 28.9 48.0 126.5 126.7 437.8
04/05 10:50 16.2 80 11.03 12.7 20 30 1009.6 0.6 24.7 29.0 48.3 127.2 127.5 440.5
04/05 10:40 15.6 84 11.17 13 24 32 1009.5 0.6 25.0 29.5 49.3 129.8 130.4 450.8
04/05 10:30 15.2 89 11.55 13.4 17 32 1009.4 0.6 25.8 30.3 51.2 134.8 136.5 471.9
04/05 10:20 14.7 88 11.08 12.7 22 28 1009.3 0.6 24.9 29.6 49.4 130.2 130.7 451.5
04/05 10:10 14.7 85 10.7 12.3 17 22 1009.1 0.6 24.0 29.0 47.8 125.9 125.3 432.7
04/05 10:00 14.4 87 10.75 12.3 22 32 1009 0.6 24.2 29.1 48.2 126.9 126.5 436.8
04/05 09:50 15.2 85 11.03 12.8 19 24 1008.8 0.4 24.7 29.3 48.9 128.8 129.1 446.0
04/05 09:40 14.7 87 10.95 12.5 22 30 1008.6 0.4 24.6 29.4 48.8 128.7 128.8 444.8
04/05 09:30 14.7 90 11.33 13.1 19 33 1008.5 0.4 25.4 30.0 50.5 133.0 134.2 463.7
04/05 09:20 14.6 89 11.14 12.9 15 20 1008.4 0.4 25.0 29.7 49.7 131.0 131.6 454.8
04/05 09:10 14.6 89 11.14 12.9 13 19 1008.3 0 25.0 29.7 49.7 131.0 131.6 454.7
04/05 09:00 13.8 89 10.6 12 15 32 1008.3 0 23.9 29.1 47.9 126.1 125.3 432.6
04/05 08:50 14.7 87 10.95 12.5 24 33 1008.3 17.2 24.6 29.4 48.8 128.6 128.7 444.7
04/05 08:40 14.3 87 10.69 12.1 19 28 1008 16.2 24.1 29.0 47.9 126.3 125.7 434.1
04/05 08:30 14.3 86 10.57 12 15 20 1007.8 16.2 23.8 28.8 47.4 124.9 124.0 428.2
04/05 08:20 14.1 83 10.07 11.2 15 19 1007.6 16.2 22.7 28.0 45.4 119.5 117.3 404.9
04/05 08:10 14.9 84 10.71 12.2 19 24 1007.4 16.2 24.1 28.8 47.6 125.5 124.9 431.5
04/05 08:00 14.4 86 10.63 12.1 19 28 1007.3 16.2 23.9 28.9 47.6 125.3 124.6 430.4
04/05 07:50 14.4 87 10.75 12.2 20 26 1007.2 16.2 24.2 29.1 48.1 126.7 126.3 436.2
04/05 07:40 14.3 89 10.93 12.5 13 17 1007 16.2 24.6 29.4 48.9 128.9 129.0 445.6
04/05 07:30 14 89 10.74 12.2 17 26 1006.9 16.2 24.2 29.2 48.3 127.2 126.8 437.9
04/05 07:20 14.1 89 10.8 12.3 20 30 1006.8 16.2 24.3 29.2 48.5 127.7 127.5 440.3
04/05 07:10 13.8 88 10.49 11.8 17 24 1006.6 16 23.7 28.8 47.3 124.6 123.6 426.6
04/05 07:00 14.1 89 10.8 12.3 19 37 1006.5 16 24.3 29.2 48.5 127.7 127.4 440.2
04/05 06:50 14.3 87 10.69 12.1 19 26 1006.6 16 24.1 29.0 47.9 126.1 125.6 433.6
04/05 06:40 14.3 86 10.57 12 17 24 1006.4 14.6 23.8 28.8 47.4 124.7 123.9 427.7
04/05 06:30 14.3 86 10.57 12 20 35 1006.3 14.6 23.8 28.8 47.3 124.7 123.9 427.7
04/05 06:20 14.4 89 11 12.6 13 17 1006.1 14.6 24.7 29.5 49.1 129.4 129.7 448.2
04/05 06:10 14.4 89 11 12.6 15 22 1006 14.6 24.7 29.5 49.1 129.4 129.7 448.1
04/05 06:00 14.5 88 10.95 12.5 19 28 1005.9 14.6 24.6 29.3 48.8 128.7 128.8 445.1
04/05 05:50 14.6 85 10.64 12.2 20 24 1005.9 14.6 23.9 28.8 47.4 125.0 124.3 429.3
04/05 05:40 14.5 84 10.45 11.8 20 30 1005.8 14.6 23.5 28.5 46.7 123.0 121.8 420.5
04/05 05:30 14.4 85 10.51 11.9 26 41 1005.8 14.6 23.7 28.6 47.0 123.8 122.8 424.0
04/05 05:20 14.7 85 10.7 12.3 30 37 1005.7 14.6 24.1 28.8 47.6 125.5 125.0 431.6
04/05 05:10 14.6 85 10.64 12.2 17 24 1005.7 14.6 23.9 28.8 47.4 124.9 124.3 429.2
04/05 05:00 14.4 86 10.63 12.1 26 39 1005.5 14.6 23.9 28.8 47.5 125.1 124.5 429.8
04/05 04:50 14.7 87 10.95 12.5 19 22 1005.5 14.6 24.6 29.2 48.7 128.3 128.5 443.8

Last Refresh: 04-May-2026 21:23:52

Bureau of Meteorology